sensor_id;sensor_type;location;lat;lon;timestamp;pressure;altitude;pressure_sealevel;temperature;humidity
45369;BME280;51342;55.250;37.668;2023-07-09T00:02:31;99315.81;;;13.91;73.32
45369;BME280;51342;55.250;37.668;2023-07-09T00:05:02;99315.69;;;13.88;73.33
45369;BME280;51342;55.250;37.668;2023-07-09T00:07:33;99306.16;;;13.88;72.98
45369;BME280;51342;55.250;37.668;2023-07-09T00:10:14;99303.34;;;13.82;72.77
45369;BME280;51342;55.250;37.668;2023-07-09T00:12:46;99302.50;;;13.83;73.11
45369;BME280;51342;55.250;37.668;2023-07-09T00:15:18;99291.00;;;13.76;73.16
45369;BME280;51342;55.250;37.668;2023-07-09T00:17:49;99293.50;;;13.73;73.38
45369;BME280;51342;55.250;37.668;2023-07-09T00:20:21;99297.81;;;13.73;73.49
45369;BME280;51342;55.250;37.668;2023-07-09T00:22:53;99294.44;;;13.75;73.42
45369;BME280;51342;55.250;37.668;2023-07-09T00:25:24;99291.78;;;13.74;73.06
45369;BME280;51342;55.250;37.668;2023-07-09T00:27:56;99289.88;;;13.70;73.43
45369;BME280;51342;55.250;37.668;2023-07-09T00:30:27;99281.00;;;13.65;73.50
45369;BME280;51342;55.250;37.668;2023-07-09T00:32:59;99287.00;;;13.62;73.25
45369;BME280;51342;55.250;37.668;2023-07-09T00:35:33;99284.41;;;13.62;73.51
45369;BME280;51342;55.250;37.668;2023-07-09T00:38:04;99281.66;;;13.59;73.44
45369;BME280;51342;55.250;37.668;2023-07-09T00:40:35;99274.56;;;13.55;73.54
45369;BME280;51342;55.250;37.668;2023-07-09T00:43:13;99281.38;;;13.51;73.45
45369;BME280;51342;55.250;37.668;2023-07-09T00:46:17;99277.72;;;13.46;73.75
45369;BME280;51342;55.250;37.668;2023-07-09T00:49:09;99263.06;;;13.48;74.38
45369;BME280;51342;55.250;37.668;2023-07-09T00:51:43;99264.03;;;13.50;74.01
45369;BME280;51342;55.250;37.668;2023-07-09T00:54:31;99269.97;;;13.48;73.98
45369;BME280;51342;55.250;37.668;2023-07-09T00:57:15;99269.91;;;13.46;73.92
45369;BME280;51342;55.250;37.668;2023-07-09T00:59:57;99266.38;;;13.44;73.88
45369;BME280;51342;55.250;37.668;2023-07-09T01:02:30;99263.78;;;13.44;73.66
45369;BME280;51342;55.250;37.668;2023-07-09T01:05:02;99261.09;;;13.43;74.24
45369;BME280;51342;55.250;37.668;2023-07-09T01:07:35;99261.88;;;13.40;74.13
45369;BME280;51342;55.250;37.668;2023-07-09T01:10:06;99262.63;;;13.38;74.10
45369;BME280;51342;55.250;37.668;2023-07-09T01:12:38;99259.88;;;13.33;73.87
45369;BME280;51342;55.250;37.668;2023-07-09T01:15:09;99257.94;;;13.28;73.76
45369;BME280;51342;55.250;37.668;2023-07-09T01:17:42;99253.38;;;13.22;73.99
45369;BME280;51342;55.250;37.668;2023-07-09T01:20:19;99261.06;;;13.20;74.19
45369;BME280;51342;55.250;37.668;2023-07-09T01:22:52;99258.63;;;13.23;74.02
45369;BME280;51342;55.250;37.668;2023-07-09T01:25:31;99261.88;;;13.19;73.97
45369;BME280;51342;55.250;37.668;2023-07-09T01:30:57;99249.72;;;13.18;73.96
45369;BME280;51342;55.250;37.668;2023-07-09T01:33:28;99255.66;;;13.16;74.07
45369;BME280;51342;55.250;37.668;2023-07-09T01:36:00;99262.47;;;13.12;74.14
45369;BME280;51342;55.250;37.668;2023-07-09T01:38:31;99257.97;;;13.08;74.64
45369;BME280;51342;55.250;37.668;2023-07-09T01:41:03;99261.41;;;13.07;74.41
45369;BME280;51342;55.250;37.668;2023-07-09T01:43:34;99256.97;;;13.05;74.46
45369;BME280;51342;55.250;37.668;2023-07-09T01:46:05;99256.22;;;13.07;74.61
45369;BME280;51342;55.250;37.668;2023-07-09T01:48:39;99252.03;;;13.11;74.34
45369;BME280;51342;55.250;37.668;2023-07-09T01:51:16;99256.44;;;13.13;74.75
45369;BME280;51342;55.250;37.668;2023-07-09T01:53:48;99261.59;;;13.12;74.86
45369;BME280;51342;55.250;37.668;2023-07-09T01:56:19;99261.50;;;13.10;74.76
45369;BME280;51342;55.250;37.668;2023-07-09T01:58:51;99263.22;;;13.10;75.10
45369;BME280;51342;55.250;37.668;2023-07-09T02:01:22;99265.03;;;13.11;75.17
45369;BME280;51342;55.250;37.668;2023-07-09T02:03:56;99260.75;;;13.13;75.22
45369;BME280;51342;55.250;37.668;2023-07-09T02:06:28;99261.06;;;13.20;75.27
45369;BME280;51342;55.250;37.668;2023-07-09T02:09:02;99245.47;;;13.20;75.35
45369;BME280;51342;55.250;37.668;2023-07-09T02:11:34;99260.69;;;13.32;75.46
45369;BME280;51342;55.250;37.668;2023-07-09T02:14:05;99261.88;;;13.40;75.77
45369;BME280;51342;55.250;37.668;2023-07-09T02:16:37;99260.59;;;13.51;76.00
45369;BME280;51342;55.250;37.668;2023-07-09T02:19:08;99262.94;;;13.68;76.17
45369;BME280;51342;55.250;37.668;2023-07-09T02:21:40;99259.84;;;13.78;75.99
45369;BME280;51342;55.250;37.668;2023-07-09T02:24:11;99254.16;;;13.88;76.08
45369;BME280;51342;55.250;37.668;2023-07-09T02:26:43;99253.22;;;14.10;76.34
45369;BME280;51342;55.250;37.668;2023-07-09T02:29:14;99256.59;;;14.31;75.83
45369;BME280;51342;55.250;37.668;2023-07-09T02:31:49;99237.50;;;14.55;75.60
45369;BME280;51342;55.250;37.668;2023-07-09T02:34:20;99235.66;;;14.78;75.13
45369;BME280;51342;55.250;37.668;2023-07-09T02:36:58;99237.97;;;14.96;74.30
45369;BME280;51342;55.250;37.668;2023-07-09T02:39:30;99245.28;;;15.07;74.34
45369;BME280;51342;55.250;37.668;2023-07-09T02:42:01;99242.84;;;15.12;74.18
45369;BME280;51342;55.250;37.668;2023-07-09T02:44:33;99230.16;;;15.23;74.45
45369;BME280;51342;55.250;37.668;2023-07-09T02:47:05;99230.50;;;15.33;74.07
45369;BME280;51342;55.250;37.668;2023-07-09T02:49:37;99245.63;;;15.45;74.42
45369;BME280;51342;55.250;37.668;2023-07-09T02:52:09;99244.19;;;15.55;74.61
45369;BME280;51342;55.250;37.668;2023-07-09T02:54:40;99245.50;;;15.69;74.45
45369;BME280;51342;55.250;37.668;2023-07-09T02:57:12;99240.75;;;15.84;73.71
45369;BME280;51342;55.250;37.668;2023-07-09T02:59:43;99237.63;;;15.98;73.64
45369;BME280;51342;55.250;37.668;2023-07-09T03:02:14;99240.75;;;16.16;73.15
45369;BME280;51342;55.250;37.668;2023-07-09T03:04:46;99242.31;;;16.41;73.09
45369;BME280;51342;55.250;37.668;2023-07-09T03:07:17;99237.19;;;16.79;72.81
45369;BME280;51342;55.250;37.668;2023-07-09T03:09:48;99241.69;;;17.19;72.37
45369;BME280;51342;55.250;37.668;2023-07-09T03:12:20;99238.19;;;17.58;71.17
45369;BME280;51342;55.250;37.668;2023-07-09T03:14:51;99235.31;;;17.85;70.05
45369;BME280;51342;55.250;37.668;2023-07-09T03:17:23;99231.28;;;18.00;69.40
45369;BME280;51342;55.250;37.668;2023-07-09T03:19:54;99233.34;;;18.15;69.16
45369;BME280;51342;55.250;37.668;2023-07-09T03:22:25;99225.72;;;18.29;68.73
45369;BME280;51342;55.250;37.668;2023-07-09T03:24:57;99225.09;;;18.42;68.08
45369;BME280;51342;55.250;37.668;2023-07-09T03:27:28;99209.66;;;18.56;67.93
45369;BME280;51342;55.250;37.668;2023-07-09T03:30:21;99212.63;;;18.77;67.45
45369;BME280;51342;55.250;37.668;2023-07-09T03:32:53;99211.22;;;18.96;66.78
45369;BME280;51342;55.250;37.668;2023-07-09T03:35:24;99218.41;;;19.11;66.60
45369;BME280;51342;55.250;37.668;2023-07-09T03:37:56;99213.41;;;19.26;66.69
45369;BME280;51342;55.250;37.668;2023-07-09T03:40:27;99201.31;;;19.35;66.83
45369;BME280;51342;55.250;37.668;2023-07-09T03:42:59;99217.31;;;19.56;66.29
45369;BME280;51342;55.250;37.668;2023-07-09T03:45:31;99205.38;;;19.75;66.32
45369;BME280;51342;55.250;37.668;2023-07-09T03:48:04;99213.47;;;19.95;66.08
45369;BME280;51342;55.250;37.668;2023-07-09T03:50:35;99200.53;;;20.11;65.56
45369;BME280;51342;55.250;37.668;2023-07-09T03:53:07;99200.66;;;20.24;65.17
45369;BME280;51342;55.250;37.668;2023-07-09T03:55:38;99192.03;;;20.35;64.69
45369;BME280;51342;55.250;37.668;2023-07-09T03:58:10;99200.91;;;20.45;63.42
45369;BME280;51342;55.250;37.668;2023-07-09T04:00:41;99196.72;;;20.64;63.86
45369;BME280;51342;55.250;37.668;2023-07-09T04:03:12;99188.97;;;20.76;63.77
45369;BME280;51342;55.250;37.668;2023-07-09T04:05:44;99195.19;;;20.87;63.57
45369;BME280;51342;55.250;37.668;2023-07-09T04:08:16;99192.59;;;20.95;63.59
45369;BME280;51342;55.250;37.668;2023-07-09T04:10:47;99200.53;;;21.04;62.34
45369;BME280;51342;55.250;37.668;2023-07-09T04:13:18;99193.59;;;21.14;61.95
45369;BME280;51342;55.250;37.668;2023-07-09T04:15:50;99195.44;;;21.26;59.95
45369;BME280;51342;55.250;37.668;2023-07-09T04:18:21;99191.13;;;21.29;60.27
45369;BME280;51342;55.250;37.668;2023-07-09T04:20:53;99184.09;;;21.33;60.40
45369;BME280;51342;55.250;37.668;2023-07-09T04:23:24;99189.44;;;21.40;59.70
45369;BME280;51342;55.250;37.668;2023-07-09T04:25:55;99185.91;;;21.40;59.41
45369;BME280;51342;55.250;37.668;2023-07-09T04:28:27;99193.78;;;21.34;58.70
45369;BME280;51342;55.250;37.668;2023-07-09T04:30:58;99188.41;;;21.25;58.18
45369;BME280;51342;55.250;37.668;2023-07-09T04:33:30;99182.34;;;21.32;59.14
45369;BME280;51342;55.250;37.668;2023-07-09T04:36:02;99188.56;;;21.43;58.03
45369;BME280;51342;55.250;37.668;2023-07-09T04:38:33;99182.47;;;21.52;57.37
45369;BME280;51342;55.250;37.668;2023-07-09T04:41:04;99183.38;;;21.60;58.54
45369;BME280;51342;55.250;37.668;2023-07-09T04:43:36;99187.78;;;21.62;58.47
45369;BME280;51342;55.250;37.668;2023-07-09T04:46:07;99177.28;;;21.67;59.87
45369;BME280;51342;55.250;37.668;2023-07-09T04:48:38;99178.22;;;21.84;59.29
45369;BME280;51342;55.250;37.668;2023-07-09T04:51:10;99180.03;;;22.04;56.89
45369;BME280;51342;55.250;37.668;2023-07-09T04:53:41;99172.22;;;22.20;56.73
45369;BME280;51342;55.250;37.668;2023-07-09T04:56:13;99173.97;;;22.29;54.82
45369;BME280;51342;55.250;37.668;2023-07-09T04:58:44;99172.22;;;22.27;53.94
45369;BME280;51342;55.250;37.668;2023-07-09T05:01:16;99170.47;;;22.19;54.19
45369;BME280;51342;55.250;37.668;2023-07-09T05:03:47;99174.78;;;22.08;53.52
45369;BME280;51342;55.250;37.668;2023-07-09T05:06:18;99168.63;;;22.05;54.12
45369;BME280;51342;55.250;37.668;2023-07-09T05:08:50;99163.34;;;22.06;53.93
45369;BME280;51342;55.250;37.668;2023-07-09T05:11:21;99166.03;;;22.17;53.64
45369;BME280;51342;55.250;37.668;2023-07-09T05:13:53;99167.84;;;22.32;53.47
45369;BME280;51342;55.250;37.668;2023-07-09T05:16:24;99160.81;;;22.43;53.12
45369;BME280;51342;55.250;37.668;2023-07-09T05:18:58;99167.00;;;22.54;53.38
45369;BME280;51342;55.250;37.668;2023-07-09T05:21:29;99169.63;;;22.66;53.24
45369;BME280;51342;55.250;37.668;2023-07-09T05:24:01;99158.22;;;22.70;52.33
45369;BME280;51342;55.250;37.668;2023-07-09T05:26:32;99154.69;;;22.81;52.22
45369;BME280;51342;55.250;37.668;2023-07-09T05:32:06;99148.53;;;23.05;52.03
45369;BME280;51342;55.250;37.668;2023-07-09T05:34:38;99141.47;;;23.13;50.58
45369;BME280;51342;55.250;37.668;2023-07-09T05:37:09;99142.34;;;23.16;50.26
45369;BME280;51342;55.250;37.668;2023-07-09T05:39:41;99144.09;;;23.26;52.00
45369;BME280;51342;55.250;37.668;2023-07-09T05:42:12;99132.59;;;23.43;50.94
45369;BME280;51342;55.250;37.668;2023-07-09T05:44:44;99146.63;;;23.57;49.22
45369;BME280;51342;55.250;37.668;2023-07-09T05:47:15;99147.50;;;23.62;49.30
45369;BME280;51342;55.250;37.668;2023-07-09T05:49:47;99144.84;;;23.71;48.53
45369;BME280;51342;55.250;37.668;2023-07-09T05:52:22;99140.41;;;23.75;48.12
45369;BME280;51342;55.250;37.668;2023-07-09T05:54:53;99142.16;;;23.76;46.86
45369;BME280;51342;55.250;37.668;2023-07-09T05:57:30;99136.91;;;23.74;48.42
45369;BME280;51342;55.250;37.668;2023-07-09T06:00:02;99135.09;;;23.81;47.42
45369;BME280;51342;55.250;37.668;2023-07-09T06:02:44;99140.41;;;23.79;46.47
45369;BME280;51342;55.250;37.668;2023-07-09T06:05:16;99138.66;;;23.74;44.99
45369;BME280;51342;55.250;37.668;2023-07-09T06:07:47;99135.16;;;23.72;46.97
45369;BME280;51342;55.250;37.668;2023-07-09T06:10:19;99139.50;;;23.80;46.93
45369;BME280;51342;55.250;37.668;2023-07-09T06:12:52;99141.22;;;23.88;45.65
45369;BME280;51342;55.250;37.668;2023-07-09T06:15:25;99141.19;;;23.92;44.89
45369;BME280;51342;55.250;37.668;2023-07-09T06:17:57;99128.03;;;23.89;43.43
45369;BME280;51342;55.250;37.668;2023-07-09T06:20:28;99127.97;;;23.94;44.42
45369;BME280;51342;55.250;37.668;2023-07-09T06:23:00;99131.44;;;24.03;43.72
45369;BME280;51342;55.250;37.668;2023-07-09T06:25:31;99128.75;;;24.10;43.83
45369;BME280;51342;55.250;37.668;2023-07-09T06:28:03;99128.75;;;24.10;42.46
45369;BME280;51342;55.250;37.668;2023-07-09T06:30:36;99130.53;;;24.09;43.80
45369;BME280;51342;55.250;37.668;2023-07-09T06:33:09;99135.81;;;24.11;42.55
45369;BME280;51342;55.250;37.668;2023-07-09T06:38:19;99134.19;;;23.90;42.13
45369;BME280;51342;55.250;37.668;2023-07-09T06:40:52;99126.25;;;23.90;42.96
45369;BME280;51342;55.250;37.668;2023-07-09T06:43:24;99125.34;;;23.95;42.47
45369;BME280;51342;55.250;37.668;2023-07-09T06:45:58;99120.03;;;24.01;41.61
45369;BME280;51342;55.250;37.668;2023-07-09T06:48:30;99112.03;;;24.09;39.99
45369;BME280;51342;55.250;37.668;2023-07-09T06:51:03;99107.63;;;24.13;40.58
45369;BME280;51342;55.250;37.668;2023-07-09T06:53:35;99112.88;;;24.14;39.93
45369;BME280;51342;55.250;37.668;2023-07-09T06:56:08;99105.81;;;24.18;40.97
45369;BME280;51342;55.250;37.668;2023-07-09T06:58:39;99109.25;;;24.27;40.77
45369;BME280;51342;55.250;37.668;2023-07-09T07:01:13;99103.13;;;24.25;40.77
45369;BME280;51342;55.250;37.668;2023-07-09T07:03:47;99102.25;;;24.23;40.58
45369;BME280;51342;55.250;37.668;2023-07-09T07:06:19;99104.97;;;24.10;39.79
45369;BME280;51342;55.250;37.668;2023-07-09T07:08:51;99103.25;;;24.04;41.80
45369;BME280;51342;55.250;37.668;2023-07-09T07:11:23;99100.63;;;23.99;40.06
45369;BME280;51342;55.250;37.668;2023-07-09T07:13:57;99101.59;;;23.91;40.35
45369;BME280;51342;55.250;37.668;2023-07-09T07:16:31;99089.28;;;23.85;40.80
45369;BME280;51342;55.250;37.668;2023-07-09T07:19:03;99098.09;;;23.81;43.59
45369;BME280;51342;55.250;37.668;2023-07-09T07:21:36;99092.81;;;23.86;42.24
45369;BME280;51342;55.250;37.668;2023-07-09T07:24:08;99083.09;;;23.88;41.07
45369;BME280;51342;55.250;37.668;2023-07-09T07:26:40;99085.72;;;23.95;40.65
45369;BME280;51342;55.250;37.668;2023-07-09T07:29:13;99080.44;;;23.91;39.69
45369;BME280;51342;55.250;37.668;2023-07-09T07:35:18;99071.66;;;23.86;41.35
45369;BME280;51342;55.250;37.668;2023-07-09T07:37:50;99078.66;;;23.93;41.80
45369;BME280;51342;55.250;37.668;2023-07-09T07:40:21;99077.72;;;24.03;42.24
45369;BME280;51342;55.250;37.668;2023-07-09T07:45:24;99075.94;;;24.06;40.82
45369;BME280;51342;55.250;37.668;2023-07-09T07:47:56;99077.66;;;24.14;41.07
45369;BME280;51342;55.250;37.668;2023-07-09T07:50:29;99073.22;;;24.19;40.40
45369;BME280;51342;55.250;37.668;2023-07-09T07:57:00;99065.31;;;24.17;42.27
45369;BME280;51342;55.250;37.668;2023-07-09T07:59:31;99059.06;;;24.21;40.79
45369;BME280;51342;55.250;37.668;2023-07-09T08:02:09;99055.56;;;24.22;39.32
45369;BME280;51342;55.250;37.668;2023-07-09T08:04:42;99045.84;;;24.24;42.24
45369;BME280;51342;55.250;37.668;2023-07-09T08:07:14;99049.28;;;24.32;41.40
45369;BME280;51342;55.250;37.668;2023-07-09T08:09:46;99050.19;;;24.36;39.93
45369;BME280;51342;55.250;37.668;2023-07-09T08:12:18;99048.50;;;24.24;39.85
45369;BME280;51342;55.250;37.668;2023-07-09T08:14:49;99052.09;;;24.17;39.32
45369;BME280;51342;55.250;37.668;2023-07-09T08:17:20;99046.84;;;24.08;41.45
45369;BME280;51342;55.250;37.668;2023-07-09T08:19:53;99052.22;;;23.97;41.07
45369;BME280;51342;55.250;37.668;2023-07-09T08:22:25;99043.47;;;23.91;42.81
45369;BME280;51342;55.250;37.668;2023-07-09T08:24:57;99045.13;;;24.02;41.15
45369;BME280;51342;55.250;37.668;2023-07-09T08:27:28;99050.34;;;24.10;40.60
45369;BME280;51342;55.250;37.668;2023-07-09T08:29:59;99043.31;;;24.12;40.20
45369;BME280;51342;55.250;37.668;2023-07-09T08:32:40;99045.84;;;24.24;40.39
45369;BME280;51342;55.250;37.668;2023-07-09T08:35:11;99032.56;;;24.37;39.10
45369;BME280;51342;55.250;37.668;2023-07-09T08:37:43;99033.25;;;24.55;41.27
45369;BME280;51342;55.250;37.668;2023-07-09T08:40:16;99038.41;;;24.71;40.76
45369;BME280;51342;55.250;37.668;2023-07-09T08:42:55;99038.38;;;24.72;41.56
45369;BME280;51342;55.250;37.668;2023-07-09T08:45:47;99031.44;;;24.62;42.67
45369;BME280;51342;55.250;37.668;2023-07-09T08:48:30;99035.13;;;24.46;41.92
45369;BME280;51342;55.250;37.668;2023-07-09T08:51:28;99022.97;;;24.20;43.42
45369;BME280;51342;55.250;37.668;2023-07-09T08:54:02;99014.22;;;24.17;43.51
45369;BME280;51342;55.250;37.668;2023-07-09T08:56:33;99015.03;;;24.23;43.11
45369;BME280;51342;55.250;37.668;2023-07-09T08:59:05;99027.28;;;24.33;41.10
45369;BME280;51342;55.250;37.668;2023-07-09T09:01:51;99025.56;;;24.26;41.50
45369;BME280;51342;55.250;37.668;2023-07-09T09:04:34;99015.16;;;24.06;40.73
45369;BME280;51342;55.250;37.668;2023-07-09T09:09:52;99020.41;;;24.13;40.71
45369;BME280;51342;55.250;37.668;2023-07-09T09:12:28;99005.34;;;24.21;42.02
45369;BME280;51342;55.250;37.668;2023-07-09T09:15:04;99001.69;;;24.39;41.12
45369;BME280;51342;55.250;37.668;2023-07-09T09:17:41;98993.66;;;24.48;40.29
45369;BME280;51342;55.250;37.668;2023-07-09T09:20:19;98991.78;;;24.59;40.13
45369;BME280;51342;55.250;37.668;2023-07-09T09:25:41;98995.22;;;24.69;38.85
45369;BME280;51342;55.250;37.668;2023-07-09T09:28:15;98992.56;;;24.67;39.30
45369;BME280;51342;55.250;37.668;2023-07-09T09:30:46;98983.75;;;24.70;38.73
45369;BME280;51342;55.250;37.668;2023-07-09T09:33:21;98974.91;;;24.71;39.23
45369;BME280;51342;55.250;37.668;2023-07-09T09:36:02;98982.66;;;24.84;38.73
45369;BME280;51342;55.250;37.668;2023-07-09T09:38:36;98977.34;;;24.89;38.39
45369;BME280;51342;55.250;37.668;2023-07-09T09:41:13;98977.22;;;25.00;39.11
45369;BME280;51342;55.250;37.668;2023-07-09T09:43:46;98970.03;;;25.11;38.52
45369;BME280;51342;55.250;37.668;2023-07-09T09:46:25;98975.28;;;25.16;37.92
45369;BME280;51342;55.250;37.668;2023-07-09T09:49:00;98973.56;;;25.13;38.28
45369;BME280;51342;55.250;37.668;2023-07-09T09:51:33;98963.00;;;25.10;39.46
45369;BME280;51342;55.250;37.668;2023-07-09T09:54:14;98967.50;;;25.00;39.27
45369;BME280;51342;55.250;37.668;2023-07-09T09:56:49;98980.84;;;24.90;39.91
45369;BME280;51342;55.250;37.668;2023-07-09T09:59:31;98977.56;;;24.71;38.87
45369;BME280;51342;55.250;37.668;2023-07-09T10:02:17;98973.13;;;24.71;39.71
45369;BME280;51342;55.250;37.668;2023-07-09T10:04:50;98967.59;;;24.93;39.74
45369;BME280;51342;55.250;37.668;2023-07-09T10:07:28;98973.66;;;25.02;37.48
45369;BME280;51342;55.250;37.668;2023-07-09T10:10:02;98953.34;;;25.06;38.27
45369;BME280;51342;55.250;37.668;2023-07-09T10:15:31;98961.38;;;24.97;37.54
45369;BME280;51342;55.250;37.668;2023-07-09T10:24:02;98948.25;;;24.88;36.44
45369;BME280;51342;55.250;37.668;2023-07-09T10:26:47;98942.88;;;24.94;36.26
45369;BME280;51342;55.250;37.668;2023-07-09T10:32:17;98937.47;;;25.01;37.73
45369;BME280;51342;55.250;37.668;2023-07-09T10:40:31;98932.09;;;25.14;36.17
45369;BME280;51342;55.250;37.668;2023-07-09T10:43:06;98938.31;;;25.05;36.29
45369;BME280;51342;55.250;37.668;2023-07-09T10:45:55;98934.09;;;24.90;36.21
45369;BME280;51342;55.250;37.668;2023-07-09T10:48:42;98926.25;;;24.85;36.71
45369;BME280;51342;55.250;37.668;2023-07-09T10:54:02;98926.09;;;24.95;38.10
45369;BME280;51342;55.250;37.668;2023-07-09T10:56:37;98918.09;;;25.02;38.12
45369;BME280;51342;55.250;37.668;2023-07-09T10:59:27;98920.69;;;25.08;36.40
45369;BME280;51342;55.250;37.668;2023-07-09T11:04:47;98919.03;;;24.97;36.38
45369;BME280;51342;55.250;37.668;2023-07-09T11:07:27;98918.06;;;25.04;37.67
45369;BME280;51342;55.250;37.668;2023-07-09T11:10:04;98919.75;;;25.11;37.41
45369;BME280;51342;55.250;37.668;2023-07-09T11:12:45;98910.81;;;25.20;36.56
45369;BME280;51342;55.250;37.668;2023-07-09T11:15:22;98906.31;;;25.26;35.12
45369;BME280;51342;55.250;37.668;2023-07-09T11:17:57;98912.34;;;25.36;36.41
45369;BME280;51342;55.250;37.668;2023-07-09T11:20:36;98909.72;;;25.33;37.54
45369;BME280;51342;55.250;37.668;2023-07-09T11:23:20;98905.31;;;25.33;36.04
45369;BME280;51342;55.250;37.668;2023-07-09T11:31:42;98904.09;;;25.56;35.44
45369;BME280;51342;55.250;37.668;2023-07-09T11:34:48;98905.00;;;25.52;35.12
45369;BME280;51342;55.250;37.668;2023-07-09T11:37:25;98899.81;;;25.46;33.99
45369;BME280;51342;55.250;37.668;2023-07-09T11:40:06;98898.94;;;25.45;35.00
45369;BME280;51342;55.250;37.668;2023-07-09T11:42:51;98891.84;;;25.49;35.79
45369;BME280;51342;55.250;37.668;2023-07-09T11:45:32;98890.00;;;25.52;35.36
45369;BME280;51342;55.250;37.668;2023-07-09T11:50:52;98890.72;;;25.62;35.15
45369;BME280;51342;55.250;37.668;2023-07-09T11:53:52;98896.00;;;25.63;35.76
45369;BME280;51342;55.250;37.668;2023-07-09T11:56:24;98904.03;;;25.59;35.53
45369;BME280;51342;55.250;37.668;2023-07-09T11:58:57;98897.06;;;25.52;35.01
45369;BME280;51342;55.250;37.668;2023-07-09T12:01:42;98890.09;;;25.46;34.96
45369;BME280;51342;55.250;37.668;2023-07-09T12:04:16;98885.59;;;25.51;33.78
45369;BME280;51342;55.250;37.668;2023-07-09T12:06:48;98890.00;;;25.54;33.85
45369;BME280;51342;55.250;37.668;2023-07-09T12:09:20;98878.53;;;25.53;36.00
45369;BME280;51342;55.250;37.668;2023-07-09T12:11:52;98884.88;;;25.43;35.23
45369;BME280;51342;55.250;37.668;2023-07-09T12:14:24;98876.97;;;25.40;35.06
45369;BME280;51342;55.250;37.668;2023-07-09T12:16:55;98880.47;;;25.42;33.74
45369;BME280;51342;55.250;37.668;2023-07-09T12:19:31;98874.38;;;25.35;34.78
45369;BME280;51342;55.250;37.668;2023-07-09T12:22:08;98877.13;;;25.31;35.34
45369;BME280;51342;55.250;37.668;2023-07-09T12:24:42;98872.88;;;25.19;36.56
45369;BME280;51342;55.250;37.668;2023-07-09T12:27:24;98887.16;;;25.09;36.49
45369;BME280;51342;55.250;37.668;2023-07-09T12:29:57;98882.75;;;25.05;37.27
45369;BME280;51342;55.250;37.668;2023-07-09T12:32:28;98882.00;;;24.97;37.71
45369;BME280;51342;55.250;37.668;2023-07-09T12:35:00;98878.50;;;24.93;38.33
45369;BME280;51342;55.250;37.668;2023-07-09T12:37:31;98875.81;;;24.95;37.22
45369;BME280;51342;55.250;37.668;2023-07-09T12:40:04;98876.69;;;24.97;37.63
45369;BME280;51342;55.250;37.668;2023-07-09T12:42:43;98869.59;;;24.99;38.21
45369;BME280;51342;55.250;37.668;2023-07-09T12:45:17;98873.97;;;25.03;39.82
45369;BME280;51342;55.250;37.668;2023-07-09T12:47:50;98872.97;;;25.13;40.32
45369;BME280;51342;55.250;37.668;2023-07-09T12:50:31;98855.41;;;25.04;37.90
45369;BME280;51342;55.250;37.668;2023-07-09T12:53:13;98866.00;;;25.07;36.45
45369;BME280;51342;55.250;37.668;2023-07-09T12:55:46;98873.03;;;25.07;37.97
45369;BME280;51342;55.250;37.668;2023-07-09T12:58:23;98867.81;;;25.01;37.67
45369;BME280;51342;55.250;37.668;2023-07-09T13:00:56;98868.69;;;25.00;38.64
45369;BME280;51342;55.250;37.668;2023-07-09T13:03:31;98864.28;;;25.02;38.48
45369;BME280;51342;55.250;37.668;2023-07-09T13:06:05;98855.28;;;25.15;37.36
45369;BME280;51342;55.250;37.668;2023-07-09T13:08:42;98856.06;;;25.22;37.90
45369;BME280;51342;55.250;37.668;2023-07-09T13:11:18;98855.91;;;25.32;37.71
45369;BME280;51342;55.250;37.668;2023-07-09T13:13:57;98860.19;;;25.40;37.93
45369;BME280;51342;55.250;37.668;2023-07-09T13:16:29;98856.19;;;25.14;38.43
45369;BME280;51342;55.250;37.668;2023-07-09T13:19:02;98856.16;;;25.16;36.76
45369;BME280;51342;55.250;37.668;2023-07-09T13:21:34;98851.91;;;25.04;37.31
45369;BME280;51342;55.250;37.668;2023-07-09T13:24:20;98844.97;;;24.94;38.91
45369;BME280;51342;55.250;37.668;2023-07-09T13:26:55;98846.88;;;24.85;38.73
45369;BME280;51342;55.250;37.668;2023-07-09T13:29:31;98857.47;;;24.82;38.23
45369;BME280;51342;55.250;37.668;2023-07-09T13:32:09;98840.91;;;24.70;38.53
45369;BME280;51342;55.250;37.668;2023-07-09T13:37:57;98849.97;;;24.52;39.41
45369;BME280;51342;55.250;37.668;2023-07-09T13:40:28;98840.19;;;24.55;38.61
45369;BME280;51342;55.250;37.668;2023-07-09T13:43:00;98842.88;;;24.54;38.17
45369;BME280;51342;55.250;37.668;2023-07-09T13:45:31;98837.56;;;24.57;39.39
45369;BME280;51342;55.250;37.668;2023-07-09T13:48:04;98835.75;;;24.59;39.29
45369;BME280;51342;55.250;37.668;2023-07-09T13:50:36;98834.84;;;24.60;38.63
45369;BME280;51342;55.250;37.668;2023-07-09T13:53:19;98842.84;;;24.55;38.20
45369;BME280;51342;55.250;37.668;2023-07-09T13:55:51;98837.53;;;24.55;40.37
45369;BME280;51342;55.250;37.668;2023-07-09T13:58:25;98840.28;;;24.49;38.60
45369;BME280;51342;55.250;37.668;2023-07-09T14:00:59;98838.59;;;24.44;39.64
45369;BME280;51342;55.250;37.668;2023-07-09T14:03:35;98836.84;;;24.43;39.97
45369;BME280;51342;55.250;37.668;2023-07-09T14:06:11;98827.22;;;24.37;39.31
45369;BME280;51342;55.250;37.668;2023-07-09T14:08:43;98831.66;;;24.35;39.87
45369;BME280;51342;55.250;37.668;2023-07-09T14:11:16;98825.47;;;24.36;39.36
45369;BME280;51342;55.250;37.668;2023-07-09T14:13:48;98821.94;;;24.34;39.39
45369;BME280;51342;55.250;37.668;2023-07-09T14:16:22;98825.41;;;24.39;40.36
45369;BME280;51342;55.250;37.668;2023-07-09T14:18:54;98831.53;;;24.46;40.13
45369;BME280;51342;55.250;37.668;2023-07-09T14:21:25;98823.50;;;24.50;40.86
45369;BME280;51342;55.250;37.668;2023-07-09T14:24:00;98826.16;;;24.52;41.42
45369;BME280;51342;55.250;37.668;2023-07-09T14:26:31;98826.19;;;24.49;41.33